Tovey, IL (62570)

11:58 PM CST on December 26, 2014 (GMT -0600)
RURAL KINCAID IL USA | Change Station
CLOSE
Current Station
Personal Weather Station
Location: PAWNEE, IL
Elevation: 610 ft
Nearby Weather Stations

Elev 610 ft 39.57 °N, 89.43 °W | Updated 3 minutes ago

Rain
Rain
47.3 °F
Feels Like 41 °F
N
14.0
Wind Variable Wind from SSW
Gusts 14.0 mph

Today
High -- | Low -- °F
--% Chance of Precip.
Yesterday
High -- | Low -- °F
Precip. -- in
7:17 AM 4:39 PM
Waxing Crescent, 33% visible
Pressure 30.06 in
Visibility 10.0 miles
Clouds Mostly Cloudy 3400 ft
Overcast 4100 ft
Windchill 41 °F
Dew Point 40 °F
Humidity 76%
Rainfall 0.04 in
Snow Depth Not available.
UV 0 out of 12
Pollen .10 out of 12
Air Quality Not available.
Flu Activity Not available.
METAR KTAZ 270535Z AUTO 19009KT 10SM -RA BKN034 OVC041 08/06 A3006 RMK AO2

More Conditions Fewer Conditions

Pressure 30.06 in
Visibility 10.0 miles
Clouds Mostly Cloudy 3400 ft
Overcast 4100 ft
Windchill 41 °F
Dew Point 40 °F
Humidity 76%
Rainfall 0.04 in
Snow Depth Not available.
UV 0 out of 12
Pollen .10 out of 12
Air Quality Not available.
Flu Activity Not available.
METAR KTAZ 270535Z AUTO 19009KT 10SM -RA BKN034 OVC041 08/06 A3006 RMK AO2

More Conditions Fewer Conditions

10-Day Weather Forecast

Almanac

Astronomy

Dec. 26, 2014 Rise Set
Actual Time
Civil Twilight
Nautical Twilight
Astronomical Twilight
Moon
Length of Visible Light
Length of Day
Tomorrow will be .
, % of the Moon is Illuminated

Today's Extremes

State Highs State Lows

Community

WunderPhotos

Upload Photos

1,780,850 photos uploaded!

WunderBlogs® & News

Nearby

Air Quality

  Air Quality AQ Index Pollutant
Not available.

Snow Depth

Station Depth Elevation

Earthquake Activity

City Distance Mag. Time & Date
Minimum magnitude displayed is 2.5.

Coastal Water Temperatures

Place Temperature

Nearby Weather Stations